sensor_id;sensor_type;location;lat;lon;timestamp;pressure;altitude;pressure_sealevel;temperature;humidity
43711;BME280;29309;42.682;23.372;2022-12-10T00:01:05;94549.69;;;8.47;86.19
43711;BME280;29309;42.682;23.372;2022-12-10T00:03:31;94550.34;;;8.45;86.18
43711;BME280;29309;42.682;23.372;2022-12-10T00:06:00;94566.28;;;8.47;86.59
43711;BME280;29309;42.682;23.372;2022-12-10T00:08:26;94555.22;;;8.47;86.79
43711;BME280;29309;42.682;23.372;2022-12-10T00:10:51;94566.47;;;8.51;86.39
43711;BME280;29309;42.682;23.372;2022-12-10T00:13:17;94551.25;;;8.50;86.35
43711;BME280;29309;42.682;23.372;2022-12-10T00:15:42;94551.13;;;8.48;86.91
43711;BME280;29309;42.682;23.372;2022-12-10T00:18:07;94574.06;;;8.50;86.81
43711;BME280;29309;42.682;23.372;2022-12-10T00:20:33;94554.19;;;8.54;86.73
43711;BME280;29309;42.682;23.372;2022-12-10T00:22:58;94536.25;;;8.55;86.74
43711;BME280;29309;42.682;23.372;2022-12-10T00:25:24;94540.34;;;8.54;86.66
43711;BME280;29309;42.682;23.372;2022-12-10T00:27:49;94534.13;;;8.53;86.92
43711;BME280;29309;42.682;23.372;2022-12-10T00:30:14;94529.28;;;8.54;86.54
43711;BME280;29309;42.682;23.372;2022-12-10T00:32:40;94546.59;;;8.54;86.89
43711;BME280;29309;42.682;23.372;2022-12-10T00:35:06;94558.91;;;8.51;86.98
43711;BME280;29309;42.682;23.372;2022-12-10T00:37:32;94549.47;;;8.56;87.00
43711;BME280;29309;42.682;23.372;2022-12-10T00:39:58;94551.00;;;8.59;86.40
43711;BME280;29309;42.682;23.372;2022-12-10T00:42:23;94554.56;;;8.62;86.38
43711;BME280;29309;42.682;23.372;2022-12-10T00:44:49;94556.59;;;8.61;86.94
43711;BME280;29309;42.682;23.372;2022-12-10T00:47:14;94543.50;;;8.62;86.49
43711;BME280;29309;42.682;23.372;2022-12-10T00:49:39;94536.81;;;8.67;86.32
43711;BME280;29309;42.682;23.372;2022-12-10T00:52:05;94538.69;;;8.62;85.86
43711;BME280;29309;42.682;23.372;2022-12-10T00:54:30;94553.16;;;8.61;86.61
43711;BME280;29309;42.682;23.372;2022-12-10T00:56:56;94551.53;;;8.56;86.57
43711;BME280;29309;42.682;23.372;2022-12-10T00:59:21;94549.16;;;8.50;86.94
43711;BME280;29309;42.682;23.372;2022-12-10T01:01:46;94562.41;;;8.52;87.43
43711;BME280;29309;42.682;23.372;2022-12-10T01:04:15;94565.06;;;8.50;87.18
43711;BME280;29309;42.682;23.372;2022-12-10T01:06:47;94550.19;;;8.57;87.07
43711;BME280;29309;42.682;23.372;2022-12-10T01:09:26;94567.94;;;8.52;87.61
43711;BME280;29309;42.682;23.372;2022-12-10T01:11:53;94559.22;;;8.57;87.53
43711;BME280;29309;42.682;23.372;2022-12-10T01:14:24;94530.38;;;8.62;87.62
43711;BME280;29309;42.682;23.372;2022-12-10T01:16:54;94525.56;;;8.63;87.55
43711;BME280;29309;42.682;23.372;2022-12-10T01:19:20;94540.13;;;8.63;87.24
43711;BME280;29309;42.682;23.372;2022-12-10T01:21:50;94527.63;;;8.62;87.33
43711;BME280;29309;42.682;23.372;2022-12-10T01:24:16;94526.38;;;8.65;87.11
43711;BME280;29309;42.682;23.372;2022-12-10T01:26:41;94519.69;;;8.70;87.38
43711;BME280;29309;42.682;23.372;2022-12-10T01:29:06;94533.00;;;8.74;86.79
43711;BME280;29309;42.682;23.372;2022-12-10T01:31:37;94546.03;;;8.71;87.05
43711;BME280;29309;42.682;23.372;2022-12-10T01:34:04;94536.03;;;8.80;86.81
43711;BME280;29309;42.682;23.372;2022-12-10T01:36:39;94527.66;;;8.78;86.71
43711;BME280;29309;42.682;23.372;2022-12-10T01:39:08;94514.06;;;8.84;86.48
43711;BME280;29309;42.682;23.372;2022-12-10T01:41:42;94515.06;;;8.90;86.18
43711;BME280;29309;42.682;23.372;2022-12-10T01:46:42;94518.28;;;8.85;86.32
43711;BME280;29309;42.682;23.372;2022-12-10T01:49:16;94534.78;;;8.83;86.78
43711;BME280;29309;42.682;23.372;2022-12-10T01:51:43;94525.66;;;8.80;86.53
43711;BME280;29309;42.682;23.372;2022-12-10T01:54:13;94512.56;;;8.81;86.61
43711;BME280;29309;42.682;23.372;2022-12-10T01:56:42;94510.69;;;8.85;86.69
43711;BME280;29309;42.682;23.372;2022-12-10T01:59:09;94508.72;;;8.88;86.52
43711;BME280;29309;42.682;23.372;2022-12-10T02:01:55;94508.91;;;8.92;86.70
43711;BME280;29309;42.682;23.372;2022-12-10T02:10:24;94504.97;;;8.97;87.44
43711;BME280;29309;42.682;23.372;2022-12-10T02:12:57;94515.22;;;8.95;87.50
43711;BME280;29309;42.682;23.372;2022-12-10T02:15:29;94515.16;;;8.93;87.74
43711;BME280;29309;42.682;23.372;2022-12-10T02:17:59;94524.44;;;8.99;87.84
43711;BME280;29309;42.682;23.372;2022-12-10T02:20:36;94509.44;;;9.04;87.69
43711;BME280;29309;42.682;23.372;2022-12-10T02:23:24;94527.41;;;9.03;88.11
43711;BME280;29309;42.682;23.372;2022-12-10T02:29:27;94499.41;;;8.97;88.07
43711;BME280;29309;42.682;23.372;2022-12-10T02:31:29;94511.75;;;8.94;88.62
43711;BME280;29309;42.682;23.372;2022-12-10T02:33:58;94479.53;;;9.01;88.09
43711;BME280;29309;42.682;23.372;2022-12-10T02:36:27;94479.59;;;9.03;87.64
43711;BME280;29309;42.682;23.372;2022-12-10T02:38:56;94484.97;;;8.99;87.96
43711;BME280;29309;42.682;23.372;2022-12-10T02:41:28;94480.41;;;9.05;87.66
43711;BME280;29309;42.682;23.372;2022-12-10T02:43:57;94494.78;;;9.02;87.59
43711;BME280;29309;42.682;23.372;2022-12-10T02:46:24;94499.78;;;9.05;87.85
43711;BME280;29309;42.682;23.372;2022-12-10T02:48:54;94474.50;;;9.13;87.70
43711;BME280;29309;42.682;23.372;2022-12-10T02:51:19;94484.06;;;9.10;87.99
43711;BME280;29309;42.682;23.372;2022-12-10T02:53:45;94468.97;;;9.13;87.88
43711;BME280;29309;42.682;23.372;2022-12-10T02:56:16;94484.06;;;9.10;87.92
43711;BME280;29309;42.682;23.372;2022-12-10T02:58:47;94489.53;;;9.08;88.00
43711;BME280;29309;42.682;23.372;2022-12-10T03:04:04;94479.88;;;9.09;87.76
43711;BME280;29309;42.682;23.372;2022-12-10T03:06:33;94486.66;;;9.06;87.93
43711;BME280;29309;42.682;23.372;2022-12-10T03:09:06;94487.38;;;9.06;88.33
43711;BME280;29309;42.682;23.372;2022-12-10T03:11:33;94488.88;;;9.09;88.40
43711;BME280;29309;42.682;23.372;2022-12-10T03:14:04;94482.19;;;9.14;88.05
43711;BME280;29309;42.682;23.372;2022-12-10T03:16:36;94488.47;;;9.15;88.06
43711;BME280;29309;42.682;23.372;2022-12-10T03:19:07;94489.97;;;9.18;88.02
43711;BME280;29309;42.682;23.372;2022-12-10T03:21:37;94494.59;;;9.13;88.41
43711;BME280;29309;42.682;23.372;2022-12-10T03:24:05;94486.22;;;9.11;88.43
43711;BME280;29309;42.682;23.372;2022-12-10T03:26:31;94476.19;;;9.20;88.37
43711;BME280;29309;42.682;23.372;2022-12-10T03:29:06;94481.66;;;9.18;88.46
43711;BME280;29309;42.682;23.372;2022-12-10T03:31:34;94488.97;;;9.27;88.09
43711;BME280;29309;42.682;23.372;2022-12-10T03:34:02;94479.84;;;9.24;87.95
43711;BME280;29309;42.682;23.372;2022-12-10T03:36:28;94477.09;;;9.24;87.99
43711;BME280;29309;42.682;23.372;2022-12-10T03:38:55;94483.34;;;9.25;88.35
43711;BME280;29309;42.682;23.372;2022-12-10T03:41:21;94483.97;;;9.23;88.19
43711;BME280;29309;42.682;23.372;2022-12-10T03:46:16;94478.94;;;9.35;87.75
43711;BME280;29309;42.682;23.372;2022-12-10T03:48:42;94477.75;;;9.40;87.61
43711;BME280;29309;42.682;23.372;2022-12-10T03:51:07;94471.00;;;9.44;87.39
43711;BME280;29309;42.682;23.372;2022-12-10T03:53:32;94460.34;;;9.38;87.36
43711;BME280;29309;42.682;23.372;2022-12-10T03:55:58;94462.94;;;9.34;87.96
43711;BME280;29309;42.682;23.372;2022-12-10T03:58:23;94465.53;;;9.30;88.45
43711;BME280;29309;42.682;23.372;2022-12-10T04:00:49;94464.94;;;9.31;88.82
43711;BME280;29309;42.682;23.372;2022-12-10T04:03:14;94468.50;;;9.34;88.94
43711;BME280;29309;42.682;23.372;2022-12-10T04:05:39;94459.09;;;9.41;88.47
43711;BME280;29309;42.682;23.372;2022-12-10T04:08:05;94456.50;;;9.45;88.37
43711;BME280;29309;42.682;23.372;2022-12-10T04:10:35;94454.91;;;9.40;88.75
43711;BME280;29309;42.682;23.372;2022-12-10T04:13:00;94454.81;;;9.38;88.88
43711;BME280;29309;42.682;23.372;2022-12-10T04:15:44;94452.41;;;9.30;89.73
43711;BME280;29309;42.682;23.372;2022-12-10T04:18:28;94460.81;;;9.32;90.40
43711;BME280;29309;42.682;23.372;2022-12-10T04:20:53;94471.72;;;9.28;90.15
43711;BME280;29309;42.682;23.372;2022-12-10T04:23:37;94466.19;;;9.28;90.89
43711;BME280;29309;42.682;23.372;2022-12-10T04:26:21;94473.78;;;9.28;91.30
43711;BME280;29309;42.682;23.372;2022-12-10T04:29:06;94463.50;;;9.30;91.65
43711;BME280;29309;42.682;23.372;2022-12-10T04:31:32;94469.75;;;9.31;92.18
43711;BME280;29309;42.682;23.372;2022-12-10T04:33:57;94473.16;;;9.29;92.08
43711;BME280;29309;42.682;23.372;2022-12-10T04:36:22;94478.69;;;9.29;92.56
43711;BME280;29309;42.682;23.372;2022-12-10T04:38:48;94476.06;;;9.33;92.74
43711;BME280;29309;42.682;23.372;2022-12-10T04:41:13;94469.13;;;9.32;93.46
43711;BME280;29309;42.682;23.372;2022-12-10T04:43:42;94476.00;;;9.31;93.26
43711;BME280;29309;42.682;23.372;2022-12-10T04:46:08;94470.53;;;9.33;93.76
43711;BME280;29309;42.682;23.372;2022-12-10T04:48:34;94458.31;;;9.38;93.65
43711;BME280;29309;42.682;23.372;2022-12-10T04:50:59;94467.06;;;9.33;93.88
43711;BME280;29309;42.682;23.372;2022-12-10T04:53:25;94468.31;;;9.30;94.03
43711;BME280;29309;42.682;23.372;2022-12-10T04:55:50;94468.16;;;9.26;94.52
43711;BME280;29309;42.682;23.372;2022-12-10T04:58:15;94477.72;;;9.23;94.80
43711;BME280;29309;42.682;23.372;2022-12-10T05:00:41;94479.94;;;9.26;95.27
43711;BME280;29309;42.682;23.372;2022-12-10T05:03:06;94486.28;;;9.29;95.50
43711;BME280;29309;42.682;23.372;2022-12-10T05:05:34;94471.81;;;9.30;95.71
43711;BME280;29309;42.682;23.372;2022-12-10T05:07:59;94472.53;;;9.31;95.46
43711;BME280;29309;42.682;23.372;2022-12-10T05:10:24;94468.06;;;9.24;95.27
43711;BME280;29309;42.682;23.372;2022-12-10T05:12:50;94479.69;;;9.20;95.65
43711;BME280;29309;42.682;23.372;2022-12-10T05:15:15;94477.44;;;9.17;96.19
43711;BME280;29309;42.682;23.372;2022-12-10T05:17:41;94478.25;;;9.19;96.93
43711;BME280;29309;42.682;23.372;2022-12-10T05:20:07;94467.28;;;9.21;97.34
43711;BME280;29309;42.682;23.372;2022-12-10T05:22:32;94463.84;;;9.23;97.68
43711;BME280;29309;42.682;23.372;2022-12-10T05:25:16;94471.31;;;9.18;97.40
43711;BME280;29309;42.682;23.372;2022-12-10T05:27:42;94454.59;;;9.16;98.48
43711;BME280;29309;42.682;23.372;2022-12-10T05:30:08;94452.59;;;9.19;98.36
43711;BME280;29309;42.682;23.372;2022-12-10T05:32:34;94445.66;;;9.18;99.14
43711;BME280;29309;42.682;23.372;2022-12-10T05:35:00;94448.31;;;9.16;99.09
43711;BME280;29309;42.682;23.372;2022-12-10T05:37:26;94453.00;;;9.11;99.27
43711;BME280;29309;42.682;23.372;2022-12-10T05:39:52;94454.22;;;9.08;99.61
43711;BME280;29309;42.682;23.372;2022-12-10T05:42:17;94442.63;;;9.12;100.00
43711;BME280;29309;42.682;23.372;2022-12-10T05:44:42;94453.00;;;9.11;99.95
43711;BME280;29309;42.682;23.372;2022-12-10T05:47:08;94466.66;;;9.07;100.00
43711;BME280;29309;42.682;23.372;2022-12-10T05:49:33;94466.56;;;9.05;100.00
43711;BME280;29309;42.682;23.372;2022-12-10T05:51:59;94479.88;;;9.09;100.00
43711;BME280;29309;42.682;23.372;2022-12-10T05:54:24;94475.84;;;9.12;100.00
43711;BME280;29309;42.682;23.372;2022-12-10T05:56:49;94472.47;;;9.13;100.00
43711;BME280;29309;42.682;23.372;2022-12-10T05:59:15;94475.41;;;9.17;100.00
43711;BME280;29309;42.682;23.372;2022-12-10T06:01:41;94476.28;;;9.22;100.00
43711;BME280;29309;42.682;23.372;2022-12-10T06:04:06;94472.88;;;9.23;100.00
43711;BME280;29309;42.682;23.372;2022-12-10T06:06:35;94469.56;;;9.27;100.00
43711;BME280;29309;42.682;23.372;2022-12-10T06:09:01;94477.63;;;9.21;100.00
43711;BME280;29309;42.682;23.372;2022-12-10T06:11:27;94488.16;;;9.24;100.00
43711;BME280;29309;42.682;23.372;2022-12-10T06:13:53;94489.69;;;9.27;100.00
43711;BME280;29309;42.682;23.372;2022-12-10T06:16:20;94477.28;;;9.28;100.00
43711;BME280;29309;42.682;23.372;2022-12-10T06:18:46;94482.97;;;9.32;100.00
43711;BME280;29309;42.682;23.372;2022-12-10T06:21:13;94476.91;;;9.36;100.00
43711;BME280;29309;42.682;23.372;2022-12-10T06:23:40;94478.31;;;9.37;100.00
43711;BME280;29309;42.682;23.372;2022-12-10T06:26:13;94481.91;;;9.39;100.00
43711;BME280;29309;42.682;23.372;2022-12-10T06:28:38;94482.31;;;9.50;100.00
43711;BME280;29309;42.682;23.372;2022-12-10T06:31:05;94476.16;;;9.51;100.00
43711;BME280;29309;42.682;23.372;2022-12-10T06:33:31;94472.13;;;9.54;100.00
43711;BME280;29309;42.682;23.372;2022-12-10T06:35:56;94460.41;;;9.56;100.00
43711;BME280;29309;42.682;23.372;2022-12-10T06:38:22;94451.63;;;9.61;100.00
43711;BME280;29309;42.682;23.372;2022-12-10T06:43:31;94451.59;;;9.44;100.00
43711;BME280;29309;42.682;23.372;2022-12-10T06:45:57;94461.31;;;9.45;100.00
43711;BME280;29309;42.682;23.372;2022-12-10T06:48:23;94467.03;;;9.49;100.00
43711;BME280;29309;42.682;23.372;2022-12-10T06:50:48;94472.31;;;9.43;100.00
43711;BME280;29309;42.682;23.372;2022-12-10T06:53:14;94483.31;;;9.40;100.00
43711;BME280;29309;42.682;23.372;2022-12-10T06:55:39;94482.75;;;9.44;100.00
43711;BME280;29309;42.682;23.372;2022-12-10T06:58:05;94477.41;;;9.48;100.00
43711;BME280;29309;42.682;23.372;2022-12-10T07:00:30;94481.69;;;9.51;100.00
43711;BME280;29309;42.682;23.372;2022-12-10T07:02:56;94502.59;;;9.54;100.00
43711;BME280;29309;42.682;23.372;2022-12-10T07:05:22;94498.31;;;9.51;100.00
43711;BME280;29309;42.682;23.372;2022-12-10T07:07:47;94498.31;;;9.51;100.00
43711;BME280;29309;42.682;23.372;2022-12-10T07:10:13;94494.38;;;9.56;100.00
43711;BME280;29309;42.682;23.372;2022-12-10T07:12:38;94489.72;;;9.61;100.00
43711;BME280;29309;42.682;23.372;2022-12-10T07:15:04;94478.06;;;9.64;100.00
43711;BME280;29309;42.682;23.372;2022-12-10T07:17:30;94487.19;;;9.67;100.00
43711;BME280;29309;42.682;23.372;2022-12-10T07:19:55;94492.09;;;9.68;100.00
43711;BME280;29309;42.682;23.372;2022-12-10T07:22:21;94483.63;;;9.64;100.00
43711;BME280;29309;42.682;23.372;2022-12-10T07:24:48;94475.94;;;9.63;100.00
43711;BME280;29309;42.682;23.372;2022-12-10T07:27:13;94470.94;;;9.59;100.00
43711;BME280;29309;42.682;23.372;2022-12-10T07:29:39;94465.22;;;9.55;100.00
43711;BME280;29309;42.682;23.372;2022-12-10T07:32:04;94450.56;;;9.53;100.00
43711;BME280;29309;42.682;23.372;2022-12-10T07:34:30;94450.19;;;9.60;100.00
43711;BME280;29309;42.682;23.372;2022-12-10T07:36:55;94444.19;;;9.66;100.00
43711;BME280;29309;42.682;23.372;2022-12-10T07:39:21;94456.78;;;9.69;100.00
43711;BME280;29309;42.682;23.372;2022-12-10T07:41:50;94466.28;;;9.64;100.00
43711;BME280;29309;42.682;23.372;2022-12-10T07:44:20;94456.88;;;9.71;100.00
43711;BME280;29309;42.682;23.372;2022-12-10T07:46:47;94443.97;;;9.77;100.00
43711;BME280;29309;42.682;23.372;2022-12-10T07:49:13;94452.28;;;9.77;100.00
43711;BME280;29309;42.682;23.372;2022-12-10T07:51:39;94470.00;;;9.70;100.00
43711;BME280;29309;42.682;23.372;2022-12-10T07:54:04;94468.06;;;9.73;100.00
43711;BME280;29309;42.682;23.372;2022-12-10T07:56:30;94454.44;;;9.79;100.00
43711;BME280;29309;42.682;23.372;2022-12-10T07:58:55;94453.16;;;9.82;100.00
43711;BME280;29309;42.682;23.372;2022-12-10T08:01:23;94449.28;;;9.89;100.00
43711;BME280;29309;42.682;23.372;2022-12-10T08:03:50;94443.97;;;9.95;100.00
43711;BME280;29309;42.682;23.372;2022-12-10T08:06:17;94439.47;;;10.04;100.00
43711;BME280;29309;42.682;23.372;2022-12-10T08:08:44;94429.88;;;10.07;100.00
43711;BME280;29309;42.682;23.372;2022-12-10T08:11:11;94430.13;;;10.13;100.00
43711;BME280;29309;42.682;23.372;2022-12-10T08:13:37;94431.72;;;10.18;100.00
43711;BME280;29309;42.682;23.372;2022-12-10T08:16:07;94430.44;;;10.21;100.00
43711;BME280;29309;42.682;23.372;2022-12-10T08:18:34;94432.66;;;10.24;100.00
43711;BME280;29309;42.682;23.372;2022-12-10T08:21:05;94432.91;;;10.30;100.00
43711;BME280;29309;42.682;23.372;2022-12-10T08:23:31;94434.47;;;10.35;100.00
43711;BME280;29309;42.682;23.372;2022-12-10T08:25:56;94427.03;;;10.40;100.00
43711;BME280;29309;42.682;23.372;2022-12-10T08:28:21;94437.56;;;10.44;100.00
43711;BME280;29309;42.682;23.372;2022-12-10T08:30:48;94429.41;;;10.48;100.00
43711;BME280;29309;42.682;23.372;2022-12-10T08:33:13;94415.13;;;10.55;100.00
43711;BME280;29309;42.682;23.372;2022-12-10T08:35:39;94411.63;;;10.55;100.00
43711;BME280;29309;42.682;23.372;2022-12-10T08:38:04;94435.00;;;10.50;100.00
43711;BME280;29309;42.682;23.372;2022-12-10T08:40:33;94425.13;;;10.45;100.00
43711;BME280;29309;42.682;23.372;2022-12-10T08:42:58;94407.50;;;10.56;100.00
43711;BME280;29309;42.682;23.372;2022-12-10T08:45:24;94409.47;;;10.53;100.00
43711;BME280;29309;42.682;23.372;2022-12-10T08:47:49;94417.31;;;10.59;100.00
43711;BME280;29309;42.682;23.372;2022-12-10T08:50:14;94408.28;;;10.58;100.00
43711;BME280;29309;42.682;23.372;2022-12-10T08:52:40;94400.31;;;10.68;100.00
43711;BME280;29309;42.682;23.372;2022-12-10T08:55:06;94392.72;;;10.69;100.00
43711;BME280;29309;42.682;23.372;2022-12-10T08:57:31;94383.88;;;10.74;100.00
43711;BME280;29309;42.682;23.372;2022-12-10T08:59:56;94378.47;;;10.78;100.00
43711;BME280;29309;42.682;23.372;2022-12-10T09:02:22;94372.72;;;10.92;100.00
43711;BME280;29309;42.682;23.372;2022-12-10T09:04:49;94386.25;;;11.02;100.00
43711;BME280;29309;42.682;23.372;2022-12-10T09:07:15;94399.19;;;11.15;100.00
43711;BME280;29309;42.682;23.372;2022-12-10T09:09:40;94390.13;;;11.14;100.00
43711;BME280;29309;42.682;23.372;2022-12-10T09:12:06;94382.03;;;11.20;100.00
43711;BME280;29309;42.682;23.372;2022-12-10T09:14:31;94369.03;;;11.27;100.00
43711;BME280;29309;42.682;23.372;2022-12-10T09:16:57;94375.59;;;11.35;99.56
43711;BME280;29309;42.682;23.372;2022-12-10T09:19:22;94373.78;;;11.44;98.41
43711;BME280;29309;42.682;23.372;2022-12-10T09:21:48;94370.41;;;11.48;97.40
43711;BME280;29309;42.682;23.372;2022-12-10T09:24:13;94362.88;;;11.50;96.89
43711;BME280;29309;42.682;23.372;2022-12-10T09:26:39;94376.38;;;11.60;97.11
43711;BME280;29309;42.682;23.372;2022-12-10T09:29:04;94383.47;;;11.65;96.53
43711;BME280;29309;42.682;23.372;2022-12-10T09:31:29;94379.78;;;11.78;94.80
43711;BME280;29309;42.682;23.372;2022-12-10T09:33:55;94366.59;;;11.78;93.27
43711;BME280;29309;42.682;23.372;2022-12-10T09:36:21;94362.34;;;11.75;92.57
43711;BME280;29309;42.682;23.372;2022-12-10T09:38:48;94362.25;;;11.73;93.47
43711;BME280;29309;42.682;23.372;2022-12-10T09:46:50;94330.16;;;11.92;93.53
43711;BME280;29309;42.682;23.372;2022-12-10T09:49:41;94322.53;;;11.93;93.60
43711;BME280;29309;42.682;23.372;2022-12-10T09:52:18;94322.78;;;12.01;93.67
43711;BME280;29309;42.682;23.372;2022-12-10T09:54:48;94320.81;;;12.05;92.81
43711;BME280;29309;42.682;23.372;2022-12-10T09:57:28;94318.69;;;12.04;93.12
43711;BME280;29309;42.682;23.372;2022-12-10T09:59:55;94327.84;;;12.08;93.86
43711;BME280;29309;42.682;23.372;2022-12-10T10:02:26;94325.38;;;12.18;94.35
43711;BME280;29309;42.682;23.372;2022-12-10T10:04:58;94317.25;;;12.26;94.53
43711;BME280;29309;42.682;23.372;2022-12-10T10:07:29;94300.91;;;12.39;93.71
43711;BME280;29309;42.682;23.372;2022-12-10T10:09:59;94299.28;;;12.55;93.10
43711;BME280;29309;42.682;23.372;2022-12-10T10:12:30;94306.06;;;12.74;92.07
43711;BME280;29309;42.682;23.372;2022-12-10T10:14:56;94312.34;;;13.00;91.24
43711;BME280;29309;42.682;23.372;2022-12-10T10:17:29;94300.53;;;13.27;89.60
43711;BME280;29309;42.682;23.372;2022-12-10T10:19:57;94301.88;;;13.54;87.87
43711;BME280;29309;42.682;23.372;2022-12-10T10:22:22;94310.75;;;13.74;86.05
43711;BME280;29309;42.682;23.372;2022-12-10T10:24:47;94317.41;;;13.91;84.69
43711;BME280;29309;42.682;23.372;2022-12-10T10:27:19;94314.81;;;14.01;83.62
43711;BME280;29309;42.682;23.372;2022-12-10T10:29:48;94292.06;;;14.13;83.38
43711;BME280;29309;42.682;23.372;2022-12-10T10:32:21;94286.13;;;14.28;83.13
43711;BME280;29309;42.682;23.372;2022-12-10T10:34:52;94284.47;;;14.49;81.91
43711;BME280;29309;42.682;23.372;2022-12-10T10:37:23;94263.06;;;14.62;80.22
43711;BME280;29309;42.682;23.372;2022-12-10T10:39:50;94259.72;;;14.69;80.16
43711;BME280;29309;42.682;23.372;2022-12-10T10:42:27;94262.69;;;14.79;77.91
43711;BME280;29309;42.682;23.372;2022-12-10T10:44:53;94259.16;;;14.77;77.71
43711;BME280;29309;42.682;23.372;2022-12-10T10:47:33;94252.16;;;14.76;76.82
43711;BME280;29309;42.682;23.372;2022-12-10T10:50:00;94266.75;;;14.72;77.40
43711;BME280;29309;42.682;23.372;2022-12-10T10:52:30;94269.53;;;14.70;78.10
43711;BME280;29309;42.682;23.372;2022-12-10T10:55:00;94266.75;;;14.72;78.28
43711;BME280;29309;42.682;23.372;2022-12-10T10:57:36;94264.03;;;14.76;78.89
43711;BME280;29309;42.682;23.372;2022-12-10T11:00:07;94259.25;;;14.81;78.53
43711;BME280;29309;42.682;23.372;2022-12-10T11:02:42;94248.78;;;14.82;79.07
43711;BME280;29309;42.682;23.372;2022-12-10T11:05:25;94247.44;;;14.85;78.72
43711;BME280;29309;42.682;23.372;2022-12-10T11:08:18;94244.63;;;14.83;77.78
43711;BME280;29309;42.682;23.372;2022-12-10T11:10:52;94241.81;;;14.83;77.53
43711;BME280;29309;42.682;23.372;2022-12-10T11:13:25;94231.38;;;14.85;77.63
43711;BME280;29309;42.682;23.372;2022-12-10T11:16:18;94225.16;;;14.89;78.11
43711;BME280;29309;42.682;23.372;2022-12-10T11:19:04;94212.59;;;14.90;78.40
43711;BME280;29309;42.682;23.372;2022-12-10T11:21:32;94204.94;;;14.90;78.13
43711;BME280;29309;42.682;23.372;2022-12-10T11:24:00;94190.28;;;14.92;77.31
43711;BME280;29309;42.682;23.372;2022-12-10T11:26:48;94189.50;;;14.87;77.32
43711;BME280;29309;42.682;23.372;2022-12-10T11:37:00;94169.84;;;14.83;77.74
43711;BME280;29309;42.682;23.372;2022-12-10T11:45:08;94181.63;;;14.75;76.36
43711;BME280;29309;42.682;23.372;2022-12-10T11:51:01;94181.63;;;14.75;74.76
43711;BME280;29309;42.682;23.372;2022-12-10T11:56:26;94182.22;;;14.70;75.24
43711;BME280;29309;42.682;23.372;2022-12-10T12:01:49;94168.28;;;14.72;75.31
43711;BME280;29309;42.682;23.372;2022-12-10T12:07:05;94166.94;;;14.75;76.16
43711;BME280;29309;42.682;23.372;2022-12-10T12:12:59;94159.84;;;14.68;77.98
43711;BME280;29309;42.682;23.372;2022-12-10T12:15:33;94159.84;;;14.68;78.46
43711;BME280;29309;42.682;23.372;2022-12-10T12:18:21;94156.84;;;14.58;78.67
43711;BME280;29309;42.682;23.372;2022-12-10T12:20:53;94142.84;;;14.54;79.23
43711;BME280;29309;42.682;23.372;2022-12-10T12:23:29;94146.91;;;14.49;79.09
43711;BME280;29309;42.682;23.372;2022-12-10T12:26:00;94140.56;;;14.44;79.01
43711;BME280;29309;42.682;23.372;2022-12-10T12:28:36;94127.28;;;14.43;79.40
43711;BME280;29309;42.682;23.372;2022-12-10T12:31:09;94125.81;;;14.40;79.30
43711;BME280;29309;42.682;23.372;2022-12-10T12:33:54;94129.28;;;14.38;79.77
43711;BME280;29309;42.682;23.372;2022-12-10T12:36:27;94124.88;;;14.27;79.76
43711;BME280;29309;42.682;23.372;2022-12-10T12:45:03;94097.31;;;14.09;81.17
43711;BME280;29309;42.682;23.372;2022-12-10T12:50:34;94086.78;;;14.06;81.73
43711;BME280;29309;42.682;23.372;2022-12-10T12:53:01;94088.84;;;14.03;82.18
43711;BME280;29309;42.682;23.372;2022-12-10T12:55:58;94093.03;;;14.04;82.10
43711;BME280;29309;42.682;23.372;2022-12-10T12:58:34;94082.56;;;14.03;82.02
43711;BME280;29309;42.682;23.372;2022-12-10T13:01:30;94092.22;;;13.98;82.08
43711;BME280;29309;42.682;23.372;2022-12-10T13:03:57;94090.78;;;13.97;82.04
43711;BME280;29309;42.682;23.372;2022-12-10T13:06:26;94080.34;;;13.97;82.43
43711;BME280;29309;42.682;23.372;2022-12-10T13:11:38;94059.34;;;13.92;82.63
43711;BME280;29309;42.682;23.372;2022-12-10T13:27:53;94061.97;;;13.84;83.09
43711;BME280;29309;42.682;23.372;2022-12-10T13:32:19;94056.38;;;13.84;82.76
43711;BME280;29309;42.682;23.372;2022-12-10T13:34:46;94043.81;;;13.83;80.97
43711;BME280;29309;42.682;23.372;2022-12-10T13:37:28;94030.38;;;13.73;81.49
43711;BME280;29309;42.682;23.372;2022-12-10T13:46:26;94003.06;;;13.68;82.19
43711;BME280;29309;42.682;23.372;2022-12-10T13:48:56;94005.03;;;13.59;81.61
43711;BME280;29309;42.682;23.372;2022-12-10T13:51:48;94007.00;;;13.53;81.45
43711;BME280;29309;42.682;23.372;2022-12-10T13:57:30;94020.72;;;13.43;81.75
43711;BME280;29309;42.682;23.372;2022-12-10T14:07:29;94011.00;;;13.46;82.10
43711;BME280;29309;42.682;23.372;2022-12-10T14:09:57;94013.13;;;13.45;82.54
43711;BME280;29309;42.682;23.372;2022-12-10T14:12:36;94012.34;;;13.43;82.50
43711;BME280;29309;42.682;23.372;2022-12-10T14:15:09;94007.50;;;13.43;82.16
43711;BME280;29309;42.682;23.372;2022-12-10T14:17:42;93995.59;;;13.41;82.29
43711;BME280;29309;42.682;23.372;2022-12-10T14:20:16;93998.38;;;13.41;82.29
43711;BME280;29309;42.682;23.372;2022-12-10T14:22:46;94008.16;;;13.42;81.86
43711;BME280;29309;42.682;23.372;2022-12-10T14:25:15;93999.88;;;13.46;81.41
43711;BME280;29309;42.682;23.372;2022-12-10T14:27:43;93991.38;;;13.40;81.50
43711;BME280;29309;42.682;23.372;2022-12-10T14:30:35;93987.19;;;13.39;81.32
43711;BME280;29309;42.682;23.372;2022-12-10T14:33:08;93988.53;;;13.36;81.66
43711;BME280;29309;42.682;23.372;2022-12-10T14:35:38;93977.44;;;13.38;81.23
43711;BME280;29309;42.682;23.372;2022-12-10T14:38:04;93976.59;;;13.31;81.17
43711;BME280;29309;42.682;23.372;2022-12-10T14:40:40;93975.19;;;13.30;81.46